Time;durP1;ratioP1;P1;durP2;ratioP2;P2;SDS_P1;SDS_P2;PMS_P1;PMS_P2;Temp;Humidity;BMP_temperature;BMP_pressure;BME280_temperature;BME280_humidity;BME280_pressure;Samples;Min_cycle;Max_cycle;Signal;HPM_P1;HPM_P2
2024/03/08 00:00:40;;;;;;;23.80;20.50;;;2.70;99.90;;;;;;5094388;28;20444;-77
2024/03/08 00:03:10;;;;;;;26.60;20.73;;;2.70;99.90;;;;;;5093955;28;20484;-77
2024/03/08 00:05:39;;;;;;;31.13;21.47;;;2.70;99.90;;;;;;5095270;28;20452;-76
2024/03/08 00:08:09;;;;;;;30.17;21.93;;;2.60;99.90;;;;;;5093977;28;20463;-76
2024/03/08 00:10:38;;;;;;;26.10;20.73;;;2.60;99.90;;;;;;5093661;28;20872;-77
2024/03/08 00:13:07;;;;;;;21.93;19.43;;;2.60;99.90;;;;;;5094165;28;20531;-77
2024/03/08 00:15:36;;;;;;;27.00;20.73;;;2.60;99.90;;;;;;5093591;28;20455;-77
2024/03/08 00:18:05;;;;;;;23.13;20.60;;;2.50;99.90;;;;;;5093683;28;20505;-76
2024/03/08 00:20:35;;;;;;;23.40;19.90;;;2.50;99.90;;;;;;5093484;28;20448;-77
2024/03/08 00:23:04;;;;;;;29.13;22.50;;;2.50;99.90;;;;;;5093689;28;20449;-77
2024/03/08 00:25:33;;;;;;;26.10;21.30;;;2.50;99.90;;;;;;5093453;28;20448;-76
2024/03/08 00:28:02;;;;;;;26.43;22.00;;;2.50;99.90;;;;;;5093136;28;20456;-77
2024/03/08 00:30:31;;;;;;;25.97;21.13;;;2.40;99.90;;;;;;5093609;28;20448;-77
2024/03/08 00:33:00;;;;;;;24.27;20.27;;;2.40;99.90;;;;;;5093250;28;20455;-77
2024/03/08 00:35:30;;;;;;;26.10;20.80;;;2.40;99.90;;;;;;5093424;28;20451;-77
2024/03/08 00:38:00;;;;;;;25.70;19.40;;;2.40;99.90;;;;;;5093008;28;20467;-76
2024/03/08 00:40:28;;;;;;;26.60;20.77;;;2.40;99.90;;;;;;5093612;28;20452;-76
2024/03/08 00:42:57;;;;;;;24.60;21.97;;;2.40;99.90;;;;;;5092961;28;20793;-77
2024/03/08 00:45:25;;;;;;;25.80;19.40;;;2.40;99.90;;;;;;5094658;28;20548;-77
2024/03/08 00:47:54;;;;;;;27.07;19.40;;;2.30;99.90;;;;;;5093523;28;20440;-77
2024/03/08 00:50:23;;;;;;;27.03;19.77;;;2.30;99.90;;;;;;5093223;28;20459;-77
2024/03/08 00:52:51;;;;;;;24.47;19.27;;;2.30;99.90;;;;;;5093154;28;20440;-77
2024/03/08 00:55:22;;;;;;;24.93;20.60;;;2.30;99.90;;;;;;5092884;28;20447;-77
2024/03/08 00:57:50;;;;;;;24.47;19.23;;;2.30;99.90;;;;;;5093019;28;20456;-77
2024/03/08 01:00:21;;;;;;;24.83;20.20;;;2.30;99.90;;;;;;5092781;28;20452;-77
2024/03/08 01:02:49;;;;;;;23.47;19.80;;;2.30;99.90;;;;;;5092737;28;20510;-77
2024/03/08 01:05:18;;;;;;;31.03;21.47;;;2.30;99.90;;;;;;5092619;28;20443;-76
2024/03/08 01:07:47;;;;;;;25.10;21.07;;;2.30;99.90;;;;;;5092867;28;20459;-77
2024/03/08 01:10:16;;;;;;;23.03;18.83;;;2.30;99.90;;;;;;5093186;28;20477;-77
2024/03/08 01:12:46;;;;;;;24.53;20.50;;;2.30;99.90;;;;;;5096729;28;20493;-77
2024/03/08 01:15:14;;;;;;;27.87;22.10;;;2.30;99.90;;;;;;5096734;28;20948;-76
2024/03/08 01:17:44;;;;;;;25.73;19.07;;;2.20;99.90;;;;;;5096482;28;20471;-77
2024/03/08 01:20:12;;;;;;;25.90;19.17;;;2.20;99.90;;;;;;5096412;28;20503;-76
2024/03/08 01:22:42;;;;;;;27.20;21.00;;;2.20;99.90;;;;;;5096490;28;20443;-77
2024/03/08 01:25:10;;;;;;;27.10;21.50;;;2.20;99.90;;;;;;5096679;28;20444;-77
2024/03/08 01:27:39;;;;;;;25.10;18.47;;;2.20;99.90;;;;;;5098341;28;20444;-77
2024/03/08 01:30:10;;;;;;;25.00;19.40;;;2.20;99.90;;;;;;5096583;28;20827;-76
2024/03/08 01:32:39;;;;;;;25.43;20.20;;;2.10;99.90;;;;;;5096390;28;20440;-77
2024/03/08 01:35:09;;;;;;;27.90;20.40;;;2.10;99.90;;;;;;5096497;28;20448;-77
2024/03/08 01:37:38;;;;;;;24.90;21.00;;;2.10;99.90;;;;;;5097725;28;20459;-77
2024/03/08 01:40:08;;;;;;;25.40;19.70;;;2.10;99.90;;;;;;5097664;28;20452;-77
2024/03/08 01:42:37;;;;;;;21.20;18.50;;;2.10;99.90;;;;;;5096702;28;20455;-77
2024/03/08 01:45:09;;;;;;;25.30;21.10;;;2.00;99.90;;;;;;5095926;28;20507;-76
2024/03/08 01:47:38;;;;;;;26.67;21.87;;;2.00;99.90;;;;;;5095896;28;20534;-77
2024/03/08 01:50:08;;;;;;;23.60;20.43;;;2.00;99.90;;;;;;5095727;28;20900;-76
2024/03/08 01:52:38;;;;;;;25.70;20.57;;;2.00;99.90;;;;;;5095981;28;20836;-77
2024/03/08 01:55:08;;;;;;;24.73;19.33;;;2.00;99.90;;;;;;5095878;28;20455;-77
2024/03/08 01:57:38;;;;;;;24.80;19.83;;;2.00;99.90;;;;;;5095720;28;20474;-77
2024/03/08 02:00:11;;;;;;;29.67;20.23;;;2.00;99.90;;;;;;5095782;28;20969;-77
2024/03/08 02:02:43;;;;;;;24.57;19.80;;;1.90;99.90;;;;;;5096971;28;20423;-77
2024/03/08 02:05:12;;;;;;;27.40;20.17;;;1.90;99.90;;;;;;5095685;28;20812;-76
2024/03/08 02:07:43;;;;;;;26.43;21.20;;;1.90;99.90;;;;;;5095371;28;20480;-76
2024/03/08 02:10:12;;;;;;;26.90;19.53;;;1.90;99.90;;;;;;5095779;28;20516;-77
2024/03/08 02:12:41;;;;;;;25.60;22.30;;;1.90;99.90;;;;;;5095512;28;20448;-77
2024/03/08 02:15:11;;;;;;;26.33;20.50;;;1.90;99.90;;;;;;5095192;28;20469;-76
2024/03/08 02:17:40;;;;;;;25.90;20.53;;;1.80;99.90;;;;;;5096470;28;20533;-77
2024/03/08 02:20:10;;;;;;;25.57;20.80;;;1.80;99.90;;;;;;5094996;28;20471;-76
2024/03/08 02:22:40;;;;;;;25.57;21.27;;;1.80;99.90;;;;;;5095041;28;20446;-76
2024/03/08 02:25:10;;;;;;;22.90;19.07;;;1.80;99.90;;;;;;5095199;28;20483;-77
2024/03/08 02:27:39;;;;;;;27.33;20.53;;;1.80;99.90;;;;;;5095155;28;20463;-77
2024/03/08 02:30:09;;;;;;;28.03;21.20;;;1.70;99.90;;;;;;5095269;28;21006;-76
2024/03/08 02:32:38;;;;;;;26.70;20.60;;;1.70;99.90;;;;;;5095263;28;20444;-77
2024/03/08 02:35:07;;;;;;;25.37;19.60;;;1.70;99.90;;;;;;5096548;28;20444;-76
2024/03/08 02:37:36;;;;;;;27.30;20.83;;;1.70;99.90;;;;;;5095048;28;20468;-77
2024/03/08 02:40:07;;;;;;;30.37;21.50;;;1.70;99.90;;;;;;5094791;28;20468;-77
2024/03/08 02:42:35;;;;;;;28.67;20.00;;;1.70;99.90;;;;;;5096447;28;20445;-77
2024/03/08 02:45:06;;;;;;;27.00;20.10;;;1.70;99.90;;;;;;5094798;28;20452;-77
2024/03/08 02:47:35;;;;;;;26.10;18.90;;;1.70;99.90;;;;;;5095651;28;20445;-77
2024/03/08 02:50:04;;;;;;;23.90;19.67;;;1.60;99.90;;;;;;5094723;28;20462;-77
2024/03/08 02:52:33;;;;;;;26.17;20.07;;;1.60;99.90;;;;;;5094538;28;20452;-77
2024/03/08 02:55:02;;;;;;;25.00;20.47;;;1.60;99.90;;;;;;5096054;28;20435;-76
2024/03/08 02:57:32;;;;;;;25.53;20.53;;;1.60;99.90;;;;;;5096302;28;20514;-78
2024/03/08 03:00:01;;;;;;;26.00;19.30;;;1.60;99.90;;;;;;5095469;28;20992;-77
2024/03/08 03:02:30;;;;;;;23.97;20.03;;;1.60;99.90;;;;;;5095070;28;20488;-77
2024/03/08 03:04:58;;;;;;;27.37;20.73;;;1.60;99.90;;;;;;5096177;28;20453;-77
2024/03/08 03:07:27;;;;;;;24.33;19.50;;;1.60;99.90;;;;;;5094915;28;20440;-77
2024/03/08 03:09:56;;;;;;;24.70;19.60;;;1.60;99.90;;;;;;5094679;28;20471;-77
2024/03/08 03:12:24;;;;;;;28.77;20.27;;;1.60;99.90;;;;;;5096015;28;20445;-77
2024/03/08 03:14:54;;;;;;;24.37;19.07;;;1.50;99.90;;;;;;5094854;28;20517;-77
2024/03/08 03:17:22;;;;;;;24.47;19.20;;;1.60;99.90;;;;;;5094560;28;20456;-77
2024/03/08 03:19:52;;;;;;;25.70;18.53;;;1.50;99.90;;;;;;5094474;28;20459;-77
2024/03/08 03:22:21;;;;;;;25.40;18.90;;;1.50;99.90;;;;;;5094777;28;20606;-77
2024/03/08 03:24:51;;;;;;;27.30;20.50;;;1.50;99.90;;;;;;5095426;28;20447;-77
2024/03/08 03:27:20;;;;;;;23.47;20.07;;;1.40;99.90;;;;;;5094716;28;20469;-77
2024/03/08 03:29:49;;;;;;;27.83;20.43;;;1.40;99.90;;;;;;5095815;28;20864;-77
2024/03/08 03:32:19;;;;;;;26.63;19.87;;;1.40;99.90;;;;;;5094543;28;20861;-77
2024/03/08 03:34:48;;;;;;;25.70;20.40;;;1.40;99.90;;;;;;5093837;28;20968;-77
2024/03/08 03:37:18;;;;;;;26.33;19.93;;;1.40;99.90;;;;;;5094457;28;20516;-77
2024/03/08 03:39:49;;;;;;;25.57;20.57;;;1.40;99.90;;;;;;5094075;28;20484;-77
2024/03/08 03:42:20;;;;;;;26.60;22.57;;;1.40;99.90;;;;;;5093232;28;20441;-77
2024/03/08 03:44:49;;;;;;;30.13;21.27;;;1.40;99.90;;;;;;5093211;28;20455;-77
2024/03/08 03:47:19;;;;;;;27.30;21.53;;;1.30;99.90;;;;;;5094479;28;20501;-76
2024/03/08 03:49:48;;;;;;;26.47;20.63;;;1.30;99.90;;;;;;5093212;28;20468;-76
2024/03/08 03:52:17;;;;;;;25.93;19.10;;;1.40;99.90;;;;;;5092878;28;20447;-77
2024/03/08 03:54:45;;;;;;;21.87;16.37;;;1.30;99.90;;;;;;5092995;28;20504;-76
2024/03/08 03:57:15;;;;;;;27.30;21.60;;;1.30;99.90;;;;;;5093043;28;20450;-77
2024/03/08 03:59:43;;;;;;;24.37;20.10;;;1.20;99.90;;;;;;5093337;28;21052;-78
2024/03/08 04:02:12;;;;;;;25.87;20.43;;;1.20;99.90;;;;;;5094896;28;20441;-78
2024/03/08 04:04:42;;;;;;;25.90;20.60;;;1.20;99.90;;;;;;5094347;28;20453;-78
2024/03/08 04:07:10;;;;;;;25.93;21.30;;;1.20;99.90;;;;;;5094709;28;20452;-78
2024/03/08 04:09:39;;;;;;;27.47;22.17;;;1.20;99.90;;;;;;5093697;28;20469;-78
2024/03/08 04:12:09;;;;;;;26.63;20.33;;;1.20;99.90;;;;;;5093397;28;20446;-77
2024/03/08 04:14:41;;;;;;;27.40;21.93;;;1.20;99.90;;;;;;5093995;28;20962;-77
2024/03/08 04:17:12;;;;;;;25.00;21.03;;;1.10;99.90;;;;;;5094184;28;20457;-77
2024/03/08 04:19:42;;;;;;;25.47;21.13;;;1.10;99.90;;;;;;5093216;28;20526;-78
2024/03/08 04:22:10;;;;;;;27.10;21.77;;;1.10;99.90;;;;;;5093822;28;20939;-78
2024/03/08 04:24:39;;;;;;;28.10;21.30;;;1.10;99.90;;;;;;5095295;28;20919;-78
2024/03/08 04:27:09;;;;;;;26.53;21.67;;;1.10;99.90;;;;;;5093513;28;20536;-77
2024/03/08 04:29:38;;;;;;;33.07;22.87;;;1.10;99.90;;;;;;5093442;28;20450;-78
2024/03/08 04:32:08;;;;;;;28.73;22.13;;;1.00;99.90;;;;;;5093431;28;20453;-77
2024/03/08 04:34:37;;;;;;;29.23;20.87;;;1.00;99.90;;;;;;5093269;28;20453;-77
2024/03/08 04:37:07;;;;;;;29.70;21.00;;;1.00;99.90;;;;;;5094583;28;20942;-77
2024/03/08 04:39:35;;;;;;;28.53;22.90;;;1.00;99.90;;;;;;5093296;28;21005;-78
2024/03/08 04:42:06;;;;;;;26.13;19.70;;;1.00;99.90;;;;;;5093294;28;20443;-77
2024/03/08 04:44:35;;;;;;;27.63;21.37;;;1.00;99.90;;;;;;5094619;28;20467;-77
2024/03/08 04:47:04;;;;;;;29.97;23.37;;;1.00;99.90;;;;;;5097620;28;20459;-78
2024/03/08 04:49:34;;;;;;;30.60;21.43;;;1.00;99.90;;;;;;5096803;28;20473;-77
2024/03/08 04:52:04;;;;;;;27.87;21.47;;;1.00;99.90;;;;;;5096815;28;20444;-77
2024/03/08 04:54:34;;;;;;;28.33;20.90;;;1.00;99.90;;;;;;5096526;28;21019;-76
2024/03/08 04:57:04;;;;;;;30.67;23.43;;;1.00;99.90;;;;;;5097976;28;20441;-78
2024/03/08 04:59:36;;;;;;;29.50;22.63;;;1.00;99.90;;;;;;5097407;28;20468;-77
2024/03/08 05:02:05;;;;;;;29.50;23.03;;;1.00;99.90;;;;;;5096253;28;20445;-76
2024/03/08 05:04:33;;;;;;;28.70;23.43;;;0.90;99.90;;;;;;5096437;28;20463;-77
2024/03/08 05:07:02;;;;;;;27.77;22.13;;;0.90;99.90;;;;;;5096498;28;20444;-76
2024/03/08 05:09:31;;;;;;;29.70;23.80;;;0.90;99.90;;;;;;5096192;28;20490;-77
2024/03/08 05:12:02;;;;;;;29.30;22.50;;;0.90;99.90;;;;;;5096235;28;20455;-77
2024/03/08 05:14:30;;;;;;;30.87;22.90;;;0.90;99.90;;;;;;5096126;28;20456;-76
2024/03/08 05:17:00;;;;;;;31.30;24.70;;;0.90;99.90;;;;;;5096021;28;20440;-76
2024/03/08 05:19:30;;;;;;;32.50;24.00;;;0.90;99.90;;;;;;5095745;28;20879;-78
2024/03/08 05:22:02;;;;;;;31.50;24.63;;;0.90;99.90;;;;;;5096597;28;20452;-78
2024/03/08 05:24:32;;;;;;;28.20;20.93;;;0.90;99.90;;;;;;5095985;28;20828;-76
2024/03/08 05:27:03;;;;;;;30.10;23.53;;;0.90;99.90;;;;;;5095958;28;20851;-76
2024/03/08 05:29:31;;;;;;;29.90;22.40;;;0.90;99.90;;;;;;5095768;28;20534;-77
2024/03/08 05:32:00;;;;;;;31.90;22.77;;;0.90;99.90;;;;;;5096482;28;20452;-78
2024/03/08 05:34:29;;;;;;;33.47;24.23;;;0.80;99.90;;;;;;5096134;28;20451;-77
2024/03/08 05:36:58;;;;;;;30.47;24.07;;;0.80;99.90;;;;;;5096975;28;20541;-78
2024/03/08 05:39:27;;;;;;;33.37;23.97;;;0.80;99.90;;;;;;5096271;28;20994;-78
2024/03/08 05:41:56;;;;;;;31.47;24.93;;;0.80;99.90;;;;;;5098431;28;20801;-77
2024/03/08 05:44:28;;;;;;;35.63;26.43;;;0.80;99.90;;;;;;5097104;28;20450;-76
2024/03/08 05:46:57;;;;;;;34.83;26.47;;;0.90;99.90;;;;;;5096460;28;20473;-76
2024/03/08 05:49:26;;;;;;;30.30;24.37;;;0.80;99.90;;;;;;5097304;28;20544;-78
2024/03/08 05:51:54;;;;;;;32.30;24.10;;;0.80;99.90;;;;;;5098269;28;20808;-77
2024/03/08 05:54:24;;;;;;;32.60;25.30;;;0.80;99.90;;;;;;5097226;28;20444;-78
2024/03/08 05:56:54;;;;;;;31.87;23.00;;;0.80;99.90;;;;;;5095304;28;20449;-77
2024/03/08 05:59:23;;;;;;;33.73;23.03;;;0.70;99.90;;;;;;5096116;28;20471;-78
2024/03/08 06:01:54;;;;;;;33.23;24.13;;;0.70;99.90;;;;;;5096533;28;20539;-78
2024/03/08 06:04:22;;;;;;;33.70;24.80;;;0.70;99.90;;;;;;5096345;28;20446;-78
2024/03/08 06:06:51;;;;;;;27.83;21.90;;;0.70;99.90;;;;;;5096303;28;20946;-78
2024/03/08 06:09:22;;;;;;;34.33;24.50;;;0.70;99.90;;;;;;5097565;28;20488;-78
2024/03/08 06:11:53;;;;;;;36.63;24.60;;;0.70;99.90;;;;;;5097459;28;20501;-78
2024/03/08 06:14:23;;;;;;;32.83;24.83;;;0.70;99.90;;;;;;5097623;28;20459;-78
2024/03/08 06:16:54;;;;;;;32.37;24.70;;;0.70;99.90;;;;;;5096706;28;20448;-78
2024/03/08 06:19:22;;;;;;;33.90;26.23;;;0.60;99.90;;;;;;5096989;28;20969;-78
2024/03/08 06:21:51;;;;;;;33.93;25.40;;;0.70;99.90;;;;;;5097400;28;20945;-78
2024/03/08 06:24:19;;;;;;;31.97;25.27;;;0.70;99.90;;;;;;5096851;28;20454;-78
2024/03/08 06:26:47;;;;;;;30.47;22.53;;;0.70;99.90;;;;;;5096600;28;20442;-77
2024/03/08 06:29:16;;;;;;;34.10;27.57;;;0.70;99.90;;;;;;5096848;28;20481;-78
2024/03/08 06:31:44;;;;;;;34.77;25.63;;;0.70;99.90;;;;;;5096009;28;20446;-78
2024/03/08 06:34:15;;;;;;;34.50;24.90;;;0.80;99.90;;;;;;5096090;28;20514;-78
2024/03/08 06:36:44;;;;;;;32.33;26.60;;;0.70;99.90;;;;;;5096331;28;20520;-78
2024/03/08 06:39:12;;;;;;;30.57;25.00;;;0.80;99.90;;;;;;5095818;28;21006;-78
2024/03/08 06:41:41;;;;;;;35.33;26.40;;;0.80;99.90;;;;;;5095920;28;20482;-78
2024/03/08 06:44:09;;;;;;;29.60;24.10;;;0.80;99.90;;;;;;5095613;28;20447;-77
2024/03/08 06:46:38;;;;;;;34.00;26.00;;;0.90;99.90;;;;;;5095720;28;20455;-78
2024/03/08 06:49:07;;;;;;;33.63;25.83;;;0.90;99.90;;;;;;5095345;28;20476;-77
2024/03/08 06:51:37;;;;;;;32.13;25.53;;;0.90;99.90;;;;;;5095440;28;20444;-77
2024/03/08 06:54:08;;;;;;;33.27;26.30;;;1.00;99.90;;;;;;5095507;28;20539;-77
2024/03/08 06:56:38;;;;;;;34.50;25.00;;;1.10;99.90;;;;;;5094611;28;20802;-77
2024/03/08 06:59:10;;;;;;;37.87;28.27;;;1.20;99.90;;;;;;5096157;28;20574;-78
2024/03/08 07:01:41;;;;;;;32.17;25.30;;;1.20;99.90;;;;;;5095011;28;20436;-77
2024/03/08 07:04:11;;;;;;;33.27;25.93;;;1.30;99.90;;;;;;5095909;28;20442;-76
2024/03/08 07:06:41;;;;;;;36.23;27.50;;;1.40;99.90;;;;;;5094122;28;20965;-79
2024/03/08 07:09:11;;;;;;;32.50;27.43;;;1.40;99.90;;;;;;5093932;28;20459;-75
2024/03/08 07:11:40;;;;;;;31.30;25.07;;;1.40;99.90;;;;;;5094113;28;20437;-77
2024/03/08 07:14:15;;;;;;;32.20;25.30;;;1.50;99.90;;;;;;5095664;28;20420;-76
2024/03/08 07:16:46;;;;;;;31.70;26.40;;;1.50;99.90;;;;;;5094104;28;20807;-77
2024/03/08 07:19:15;;;;;;;33.23;26.20;;;1.50;99.90;;;;;;5094053;28;20465;-77
2024/03/08 07:21:45;;;;;;;30.37;24.83;;;1.50;99.90;;;;;;5094132;28;20472;-77
2024/03/08 07:24:37;;;;;;;37.37;27.87;;;1.60;99.90;;;;;;5095228;28;20434;-77
2024/03/08 07:27:06;;;;;;;34.07;25.43;;;1.60;99.90;;;;;;5093835;28;20458;-77
2024/03/08 07:29:35;;;;;;;34.20;26.97;;;1.70;99.90;;;;;;5093862;28;20546;-77
2024/03/08 07:32:14;;;;;;;33.40;28.50;;;1.70;99.90;;;;;;5094014;28;20483;-77
2024/03/08 07:34:44;;;;;;;34.60;24.27;;;1.80;99.90;;;;;;5095276;28;20427;-76
2024/03/08 07:37:14;;;;;;;29.17;24.93;;;1.80;99.90;;;;;;5093499;28;20455;-76
2024/03/08 07:39:45;;;;;;;32.10;26.37;;;1.90;99.90;;;;;;5094870;28;20460;-77
2024/03/08 07:42:14;;;;;;;28.97;24.80;;;1.90;99.90;;;;;;5093754;28;20449;-76
2024/03/08 07:44:42;;;;;;;34.00;25.70;;;2.00;99.90;;;;;;5093346;28;20861;-76
2024/03/08 07:47:13;;;;;;;33.80;27.40;;;2.10;99.90;;;;;;5093378;28;20546;-77
2024/03/08 07:49:43;;;;;;;31.20;25.27;;;2.10;99.90;;;;;;5093470;28;20464;-76
2024/03/08 07:52:15;;;;;;;28.87;24.10;;;2.10;99.90;;;;;;5093039;28;20442;-76
2024/03/08 07:54:48;;;;;;;31.33;26.80;;;2.20;99.90;;;;;;5093114;28;20505;-77
2024/03/08 07:57:18;;;;;;;28.80;25.60;;;2.30;99.90;;;;;;5093127;28;20963;-77
2024/03/08 07:59:46;;;;;;;29.53;26.17;;;2.40;99.90;;;;;;5092866;28;21047;-77
2024/03/08 08:02:14;;;;;;;30.27;27.07;;;2.40;99.90;;;;;;5093116;28;20453;-76
2024/03/08 08:04:46;;;;;;;29.23;24.97;;;2.40;99.90;;;;;;5092956;28;20527;-77
2024/03/08 08:07:14;;;;;;;30.33;26.50;;;2.50;99.90;;;;;;5094235;28;20774;-77
2024/03/08 08:09:46;;;;;;;31.10;25.30;;;2.60;99.90;;;;;;5092744;28;20486;-76
2024/03/08 08:12:15;;;;;;;27.67;24.70;;;2.70;99.90;;;;;;5092745;28;20458;-76
2024/03/08 08:14:44;;;;;;;29.30;26.10;;;2.80;99.90;;;;;;5092754;28;20945;-77
2024/03/08 08:17:13;;;;;;;27.53;24.63;;;2.90;99.90;;;;;;5094052;28;20442;-77
2024/03/08 08:19:43;;;;;;;29.53;26.00;;;3.00;99.90;;;;;;5092273;28;20479;-77
2024/03/08 08:22:11;;;;;;;30.13;27.03;;;3.10;99.90;;;;;;5093909;28;20957;-77
2024/03/08 08:24:43;;;;;;;28.47;25.57;;;3.20;99.90;;;;;;5092723;28;20448;-77
2024/03/08 08:27:14;;;;;;;29.10;26.17;;;3.40;99.90;;;;;;5092371;28;20954;-77
2024/03/08 08:29:46;;;;;;;30.43;27.27;;;3.50;99.90;;;;;;5092764;28;20464;-76
2024/03/08 08:32:14;;;;;;;29.60;26.50;;;3.60;99.90;;;;;;5092816;28;20487;-77
2024/03/08 08:34:45;;;;;;;25.23;22.70;;;3.70;99.90;;;;;;5092648;28;20802;-77
2024/03/08 08:37:13;;;;;;;36.30;30.63;;;3.80;99.90;;;;;;5092662;28;20436;-76
2024/03/08 08:39:43;;;;;;;30.47;27.37;;;3.80;99.90;;;;;;5092940;28;20472;-77
2024/03/08 08:42:18;;;;;;;29.17;26.07;;;3.90;99.90;;;;;;5092503;28;20468;-76
2024/03/08 08:44:49;;;;;;;28.83;25.90;;;4.00;99.90;;;;;;5092527;28;20441;-77
2024/03/08 08:47:20;;;;;;;27.17;24.37;;;4.10;99.90;;;;;;5093848;28;20973;-77
2024/03/08 08:49:50;;;;;;;29.03;26.03;;;4.20;99.90;;;;;;5093951;28;20456;-77
2024/03/08 08:52:19;;;;;;;29.00;26.17;;;4.30;99.90;;;;;;5092483;28;20436;-76
2024/03/08 08:54:51;;;;;;;29.33;26.40;;;4.40;99.90;;;;;;5092312;28;20444;-77
2024/03/08 08:57:20;;;;;;;29.27;26.23;;;4.40;99.90;;;;;;5092571;28;20448;-76
2024/03/08 08:59:50;;;;;;;27.07;24.50;;;4.50;99.90;;;;;;5092105;28;20992;-76
2024/03/08 09:02:20;;;;;;;27.47;24.77;;;4.50;99.90;;;;;;5092181;28;20522;-77
2024/03/08 09:04:50;;;;;;;31.40;28.50;;;4.60;99.90;;;;;;5092344;28;20786;-77
2024/03/08 09:07:20;;;;;;;29.80;27.00;;;4.70;99.90;;;;;;5092142;28;20203;-77
2024/03/08 09:09:49;;;;;;;32.30;29.27;;;4.80;99.90;;;;;;5092143;28;20475;-77
2024/03/08 09:12:17;;;;;;;28.57;25.87;;;4.80;99.90;;;;;;5091993;28;20501;-77
2024/03/08 09:14:49;;;;;;;28.47;25.67;;;4.80;99.90;;;;;;5093580;28;20929;-76
2024/03/08 09:17:20;;;;;;;30.10;27.10;;;4.80;99.90;;;;;;5092147;28;20934;-77
2024/03/08 09:19:54;;;;;;;28.83;25.97;;;4.80;99.90;;;;;;5091981;28;20475;-76
2024/03/08 09:22:22;;;;;;;29.27;26.40;;;4.80;99.90;;;;;;5092173;28;20499;-77
2024/03/08 09:24:51;;;;;;;31.80;28.70;;;4.90;99.90;;;;;;5092107;28;20463;-76
2024/03/08 09:27:19;;;;;;;30.20;27.33;;;4.90;99.90;;;;;;5092408;28;20521;-77
2024/03/08 09:29:49;;;;;;;29.63;26.73;;;5.00;99.90;;;;;;5093036;28;20467;-77
2024/03/08 09:32:19;;;;;;;30.90;27.60;;;5.00;99.90;;;;;;5094527;28;20815;-77
2024/03/08 09:34:47;;;;;;;29.50;26.77;;;5.00;99.90;;;;;;5096081;28;20453;-77
2024/03/08 09:37:17;;;;;;;28.60;25.87;;;5.10;99.90;;;;;;5096416;28;20452;-77
2024/03/08 09:39:48;;;;;;;28.43;25.53;;;5.10;99.90;;;;;;5095893;28;20992;-77
2024/03/08 09:42:17;;;;;;;30.70;27.50;;;5.10;99.90;;;;;;5095793;28;20844;-77
2024/03/08 09:44:47;;;;;;;30.97;28.00;;;5.10;99.90;;;;;;5096043;28;20444;-77
2024/03/08 09:47:19;;;;;;;31.43;28.50;;;5.10;99.90;;;;;;5095938;28;20441;-77
2024/03/08 09:49:51;;;;;;;29.90;27.10;;;5.20;99.90;;;;;;5095964;28;20482;-77
2024/03/08 09:52:20;;;;;;;30.17;27.30;;;5.20;99.90;;;;;;5096872;28;20439;-77
2024/03/08 09:54:49;;;;;;;33.53;29.17;;;5.30;99.90;;;;;;5096253;28;20482;-78
2024/03/08 09:57:21;;;;;;;29.27;26.40;;;5.30;99.90;;;;;;5096147;28;20453;-78
2024/03/08 09:59:50;;;;;;;31.77;28.73;;;5.40;99.90;;;;;;5096840;28;20468;-77
2024/03/08 10:02:21;;;;;;;31.67;28.60;;;5.40;99.90;;;;;;5096402;28;20495;-77
2024/03/08 10:04:53;;;;;;;30.67;27.77;;;5.50;99.90;;;;;;5096491;28;20463;-78
2024/03/08 10:07:24;;;;;;;30.60;27.60;;;5.50;99.90;;;;;;5096724;28;20455;-78
2024/03/08 10:09:53;;;;;;;30.53;27.50;;;5.60;99.90;;;;;;5094876;28;20465;-76
2024/03/08 10:12:22;;;;;;;31.67;28.57;;;5.60;99.90;;;;;;5096983;28;20439;-77
2024/03/08 10:14:50;;;;;;;29.57;26.70;;;5.60;99.90;;;;;;5095883;28;20455;-77
2024/03/08 10:17:21;;;;;;;32.77;29.67;;;5.70;99.90;;;;;;5096116;28;20444;-77
2024/03/08 10:19:53;;;;;;;31.77;28.70;;;5.70;99.90;;;;;;5096062;28;20473;-77
2024/03/08 10:22:22;;;;;;;30.60;27.63;;;5.80;99.90;;;;;;5098088;28;20806;-78
2024/03/08 10:24:50;;;;;;;32.20;29.10;;;5.80;99.90;;;;;;5096120;28;20454;-77
2024/03/08 10:27:21;;;;;;;32.80;29.40;;;5.80;99.90;;;;;;5096175;28;20481;-77
2024/03/08 10:29:51;;;;;;;30.67;27.57;;;5.90;99.90;;;;;;5095353;28;20576;-78
2024/03/08 10:32:24;;;;;;;30.97;28.27;;;5.90;99.90;;;;;;5095116;28;20541;-76
2024/03/08 10:34:54;;;;;;;25.13;22.87;;;6.00;99.90;;;;;;5096422;28;20452;-78
2024/03/08 10:37:24;;;;;;;31.17;28.30;;;6.10;99.90;;;;;;5097491;28;20434;-77
2024/03/08 10:40:10;;;;;;;33.83;30.37;;;6.10;99.90;;;;;;5097655;28;20445;-77
2024/03/08 10:42:43;;;;;;;31.10;28.20;;;6.10;99.90;;;;;;5095881;28;20458;-77
2024/03/08 10:45:16;;;;;;;31.20;28.30;;;6.10;99.90;;;;;;5095836;28;20875;-78
2024/03/08 10:47:55;;;;;;;31.50;28.50;;;6.20;99.90;;;;;;5096532;28;20452;-77
2024/03/08 10:50:25;;;;;;;33.93;30.83;;;6.20;99.90;;;;;;5095235;28;20494;-78
2024/03/08 10:52:55;;;;;;;32.03;29.23;;;6.30;99.90;;;;;;5097554;28;20429;-77
2024/03/08 10:55:27;;;;;;;29.57;26.97;;;6.40;99.90;;;;;;5095363;28;21030;-77
2024/03/08 10:57:55;;;;;;;31.17;28.43;;;6.40;99.90;;;;;;5096018;28;20442;-77
2024/03/08 11:00:26;;;;;;;31.67;28.80;;;6.40;99.90;;;;;;5095263;28;20453;-77
2024/03/08 11:03:00;;;;;;;31.90;29.10;;;6.50;99.90;;;;;;5095062;28;20462;-77
2024/03/08 11:05:39;;;;;;;29.87;27.30;;;6.50;99.90;;;;;;5094796;28;20445;-78
2024/03/08 11:08:24;;;;;;;31.67;28.97;;;6.50;99.90;;;;;;5096450;28;20949;-77
2024/03/08 11:10:56;;;;;;;30.53;27.93;;;6.60;99.90;;;;;;5094849;28;20430;-78
2024/03/08 11:13:35;;;;;;;30.37;27.60;;;6.60;99.90;;;;;;5095297;28;20449;-77
2024/03/08 11:16:10;;;;;;;31.70;28.70;;;6.60;99.90;;;;;;5095418;28;20424;-78
2024/03/08 11:18:42;;;;;;;32.23;29.13;;;6.70;99.90;;;;;;5094708;28;20524;-78
2024/03/08 11:21:14;;;;;;;30.03;27.17;;;6.70;99.90;;;;;;5096358;28;20473;-76
2024/03/08 11:23:43;;;;;;;30.60;27.80;;;6.80;99.90;;;;;;5094764;28;20460;-77
2024/03/08 11:26:22;;;;;;;29.87;27.27;;;6.80;99.90;;;;;;5095295;28;20807;-77
2024/03/08 11:28:52;;;;;;;32.20;27.23;;;6.90;99.90;;;;;;5094911;28;20577;-77
2024/03/08 11:31:26;;;;;;;29.20;26.60;;;6.80;99.90;;;;;;5095353;28;20452;-77
2024/03/08 11:33:59;;;;;;;30.80;28.00;;;6.90;99.90;;;;;;5095631;28;20438;-76
2024/03/08 11:36:35;;;;;;;30.03;27.17;;;7.00;99.90;;;;;;5094343;28;20442;-77
2024/03/08 11:39:09;;;;;;;31.03;28.23;;;7.10;99.90;;;;;;5094558;28;20481;-76
2024/03/08 11:41:38;;;;;;;31.40;28.60;;;7.10;99.90;;;;;;5096040;28;20417;-77
2024/03/08 11:44:08;;;;;;;29.10;26.30;;;7.10;99.90;;;;;;5094876;28;20888;-77
2024/03/08 11:46:42;;;;;;;31.50;28.80;;;7.20;99.90;;;;;;5094754;28;20435;-76
2024/03/08 11:49:12;;;;;;;29.10;26.40;;;7.20;99.90;;;;;;5094316;28;20478;-77
2024/03/08 11:51:41;;;;;;;28.27;25.40;;;7.30;99.90;;;;;;5095282;28;20443;-76
2024/03/08 11:54:13;;;;;;;31.57;28.67;;;7.30;99.90;;;;;;5094186;28;20459;-77
2024/03/08 11:56:42;;;;;;;29.70;26.90;;;7.30;99.90;;;;;;5095064;28;20463;-77
2024/03/08 11:59:17;;;;;;;27.80;25.20;;;7.40;99.90;;;;;;5094454;28;20547;-77
2024/03/08 12:02:03;;;;;;;28.33;25.73;;;7.40;99.90;;;;;;5096360;28;20419;-76
2024/03/08 12:04:38;;;;;;;27.47;25.07;;;7.40;99.90;;;;;;5093275;28;20920;-77
2024/03/08 12:07:11;;;;;;;28.53;25.93;;;7.40;99.90;;;;;;5093441;28;20443;-76
2024/03/08 12:09:46;;;;;;;26.70;24.40;;;7.50;99.90;;;;;;5094487;28;20975;-79
2024/03/08 12:12:16;;;;;;;28.47;25.67;;;7.50;99.90;;;;;;5095212;28;20447;-78
2024/03/08 12:14:45;;;;;;;27.60;25.27;;;7.50;99.90;;;;;;5094365;28;20851;-76
2024/03/08 12:17:14;;;;;;;26.13;23.73;;;7.60;99.90;;;;;;5094426;28;20535;-78
2024/03/08 12:19:48;;;;;;;28.40;25.70;;;7.70;99.90;;;;;;5094472;28;20221;-78
2024/03/08 12:22:18;;;;;;;27.47;25.07;;;7.70;99.90;;;;;;5095790;28;20430;-78
2024/03/08 12:25:04;;;;;;;27.40;24.90;;;7.70;99.90;;;;;;5095685;28;20501;-78
2024/03/08 12:27:33;;;;;;;26.37;23.97;;;7.80;99.90;;;;;;5096029;28;20480;-79
2024/03/08 12:30:17;;;;;;;26.20;23.90;;;7.80;99.90;;;;;;5095226;28;20475;-78
2024/03/08 12:32:56;;;;;;;26.67;24.27;;;7.80;99.90;;;;;;5095070;28;20449;-79
2024/03/08 12:35:28;;;;;;;25.23;22.93;;;7.80;99.90;;;;;;5096654;28;20413;-79
2024/03/08 12:37:58;;;;;;;26.13;23.83;;;7.90;99.90;;;;;;5096621;28;20534;-78
2024/03/08 12:40:31;;;;;;;27.83;25.23;;;7.90;99.90;;;;;;5095842;28;20451;-78
2024/03/08 12:43:00;;;;;;;28.63;26.10;;;7.90;99.90;;;;;;5095003;28;20985;-78
2024/03/08 12:45:30;;;;;;;27.47;25.10;;;8.00;99.90;;;;;;5095345;28;20539;-78
2024/03/08 12:47:59;;;;;;;27.20;24.60;;;8.00;99.90;;;;;;5096422;28;20925;-78
2024/03/08 12:50:29;;;;;;;27.80;25.30;;;8.00;99.90;;;;;;5095106;28;20482;-78